createdAt,value
2018-08-17T06:35:24.378Z,9.70
2018-08-17T06:37:52.881Z,9.95
2018-08-17T06:40:21.465Z,10.53
2018-08-17T06:42:49.971Z,11.80
2018-08-17T06:45:18.502Z,10.48
2018-08-17T06:47:46.969Z,11.30
2018-08-17T06:50:15.518Z,10.45
2018-08-17T06:52:43.991Z,11.35
2018-08-17T06:55:12.839Z,11.55
2018-08-17T06:57:41.536Z,10.75
2018-08-17T07:00:12.761Z,10.40
2018-08-17T07:02:41.805Z,10.32
2018-08-17T07:05:10.293Z,9.15
2018-08-17T07:07:38.925Z,7.22
2018-08-17T07:10:08.941Z,7.85
2018-08-17T07:12:37.423Z,8.13
2018-08-17T07:15:06.213Z,8.78
2018-08-17T07:17:34.930Z,8.90
2018-08-17T07:20:03.554Z,7.95
2018-08-17T07:22:32.078Z,8.00
2018-08-17T07:25:00.582Z,7.87
2018-08-17T07:27:29.094Z,7.95
2018-08-17T07:29:58.423Z,8.20
2018-08-17T07:32:26.931Z,8.25
2018-08-17T07:34:55.408Z,8.58
2018-08-17T07:37:23.890Z,9.55
2018-08-17T07:39:52.493Z,9.65
2018-08-17T07:42:21.004Z,7.25
2018-08-17T07:44:49.572Z,7.90
2018-08-17T07:47:18.051Z,8.53
2018-08-17T07:49:46.635Z,7.85
2018-08-17T07:52:15.115Z,7.53
2018-08-17T07:54:43.585Z,7.42
2018-08-17T07:57:12.078Z,7.00
2018-08-17T07:59:40.605Z,6.92
2018-08-17T08:02:09.194Z,7.03
2018-08-17T08:04:37.662Z,6.87
2018-08-17T08:07:06.134Z,6.65
2018-08-17T08:09:34.627Z,6.95
2018-08-17T08:12:03.082Z,6.10
2018-08-17T08:14:31.554Z,6.40
2018-08-17T08:17:00.066Z,7.28
2018-08-17T08:19:28.659Z,7.20
2018-08-17T08:21:57.142Z,7.17
2018-08-17T08:24:25.623Z,7.20
2018-08-17T08:26:54.089Z,6.20
2018-08-17T08:29:22.716Z,6.25
2018-08-17T08:31:51.162Z,6.37
2018-08-17T08:34:19.633Z,6.17
2018-08-17T08:36:48.187Z,6.53
2018-08-17T08:39:16.853Z,6.70
2018-08-17T08:41:45.355Z,5.70
2018-08-17T08:44:13.824Z,5.42
2018-08-17T08:46:42.650Z,5.55
2018-08-17T08:49:11.253Z,5.67
2018-08-17T08:51:39.711Z,5.22
2018-08-17T08:54:08.194Z,5.00
2018-08-17T08:56:36.682Z,4.08
2018-08-17T08:59:05.259Z,4.05
2018-08-17T09:01:33.524Z,3.87
2018-08-17T09:04:02.010Z,3.90
2018-08-17T09:06:30.463Z,3.52
2018-08-17T09:08:58.979Z,3.37
2018-08-17T09:11:27.481Z,3.50
2018-08-17T09:13:55.983Z,4.03
2018-08-17T09:16:24.482Z,4.80
2018-08-17T09:18:53.025Z,4.65
2018-08-17T09:21:21.511Z,5.25
2018-08-17T09:23:49.972Z,4.78
2018-08-17T09:26:18.447Z,5.47
2018-08-17T09:28:47.541Z,5.58
2018-08-17T09:31:16.097Z,6.00
2018-08-17T09:33:44.563Z,6.50
2018-08-17T09:36:13.049Z,7.40
2018-08-17T09:38:41.517Z,7.97
2018-08-17T09:41:10.008Z,7.83
2018-08-17T09:43:38.485Z,6.80
2018-08-17T09:46:07.037Z,7.92
2018-08-17T09:48:35.517Z,7.60
2018-08-17T09:51:04.055Z,6.55
2018-08-17T09:53:32.647Z,6.60
2018-08-17T09:56:01.203Z,5.92
2018-08-17T09:58:29.657Z,5.78
2018-08-17T10:01:03.278Z,5.62
2018-08-17T10:03:37.283Z,4.45
2018-08-17T10:06:11.006Z,5.20
2018-08-17T10:08:44.898Z,5.78
2018-08-17T10:11:13.397Z,4.22
2018-08-17T10:13:41.869Z,4.60
2018-08-17T10:16:10.353Z,4.72
2018-08-17T10:18:44.663Z,5.22
2018-08-17T10:21:14.681Z,4.50
2018-08-17T10:23:42.917Z,4.72
2018-08-17T10:26:11.400Z,4.47
2018-08-17T10:28:39.905Z,4.08
2018-08-17T10:31:08.385Z,3.83
2018-08-17T10:33:36.848Z,4.25
2018-08-17T10:36:05.321Z,3.95
2018-08-17T10:38:33.817Z,3.80
2018-08-17T10:41:02.322Z,3.50
2018-08-17T10:43:30.801Z,3.75
2018-08-17T10:46:04.606Z,3.33
2018-08-17T10:48:33.080Z,3.20
2018-08-17T10:51:01.566Z,2.83
2018-08-17T10:53:36.137Z,2.58
2018-08-17T10:56:04.812Z,3.08
2018-08-17T10:58:34.139Z,3.15
2018-08-17T11:01:02.642Z,2.87
2018-08-17T11:03:31.121Z,3.10
2018-08-17T11:05:59.592Z,2.92
2018-08-17T11:08:28.087Z,3.40
2018-08-17T11:10:56.627Z,2.87
2018-08-17T11:13:25.068Z,3.25
2018-08-17T11:15:53.584Z,2.50
2018-08-17T11:18:22.178Z,3.00
2018-08-17T11:20:50.786Z,3.20
2018-08-17T11:23:19.250Z,2.40
2018-08-17T11:25:47.736Z,2.10
2018-08-17T11:28:16.206Z,2.02
2018-08-17T11:30:44.755Z,2.60
2018-08-17T11:33:13.397Z,2.72
2018-08-17T11:35:41.939Z,2.67
2018-08-17T11:38:17.238Z,2.92
2018-08-17T11:40:45.862Z,3.52
2018-08-17T11:43:14.331Z,3.37
2018-08-17T11:45:44.776Z,3.87
2018-08-17T11:48:21.792Z,3.60
2018-08-17T11:50:50.493Z,3.45
2018-08-17T11:53:18.974Z,3.83
2018-08-17T11:55:47.456Z,4.00
2018-08-17T11:58:15.935Z,3.67
2018-08-17T12:00:44.564Z,3.40
2018-08-17T12:03:13.146Z,3.10
2018-08-17T12:05:41.623Z,3.45
2018-08-17T12:08:10.221Z,3.55
2018-08-17T12:10:38.643Z,3.72
2018-08-17T12:13:12.544Z,4.83
2018-08-17T12:15:46.338Z,4.70
2018-08-17T12:18:14.801Z,4.53
2018-08-17T12:20:43.388Z,5.03
2018-08-17T12:23:11.864Z,5.87
2018-08-17T12:25:59.938Z,5.83
2018-08-17T12:28:29.932Z,4.80
2018-08-17T12:30:59.474Z,4.12
2018-08-17T12:33:28.131Z,3.92
2018-08-17T12:35:56.661Z,4.08
2018-08-17T12:38:25.182Z,4.00
2018-08-17T12:40:54.855Z,4.53
2018-08-17T12:43:31.476Z,4.20
2018-08-17T12:45:59.961Z,4.12
2018-08-17T12:48:28.524Z,3.83
2018-08-17T12:51:02.326Z,3.47
2018-08-17T12:53:30.911Z,3.92
2018-08-17T12:55:59.537Z,3.98
2018-08-17T12:58:28.063Z,4.05
2018-08-17T13:00:56.597Z,4.80
2018-08-17T13:03:25.150Z,5.00
2018-08-17T13:05:53.290Z,4.50
2018-08-17T13:08:21.810Z,4.50
2018-08-17T13:10:50.576Z,4.78
2018-08-17T13:13:19.055Z,4.72
2018-08-17T13:15:53.616Z,5.22
2018-08-17T13:18:23.076Z,5.00
2018-08-17T13:20:51.640Z,4.45
2018-08-17T13:23:20.481Z,5.10
2018-08-17T13:25:49.172Z,4.85
2018-08-17T13:28:17.668Z,5.28
2018-08-17T13:30:46.337Z,5.50
2018-08-17T13:33:14.554Z,5.50
2018-08-17T13:35:43.088Z,5.22
2018-08-17T13:38:11.686Z,6.50
2018-08-17T13:40:40.267Z,5.50
2018-08-17T13:43:08.809Z,6.25
2018-08-17T13:45:37.348Z,6.00
2018-08-17T13:48:06.198Z,6.47
2018-08-17T13:50:34.879Z,6.62
2018-08-17T13:53:03.383Z,6.50
2018-08-17T13:55:31.922Z,6.05
2018-08-17T13:58:00.528Z,5.75
2018-08-17T14:00:29.095Z,5.35
2018-08-17T14:02:57.652Z,5.00
2018-08-17T14:05:26.258Z,4.30
2018-08-17T14:07:54.765Z,4.05
2018-08-17T14:10:22.961Z,5.30
2018-08-17T14:12:51.164Z,4.97
2018-08-17T14:15:19.686Z,5.83
2018-08-17T14:17:48.314Z,7.53
2018-08-17T14:20:16.935Z,10.50
2018-08-17T14:22:45.522Z,8.20
2018-08-17T14:25:14.052Z,6.50
2018-08-17T14:27:42.642Z,5.37
2018-08-17T14:30:16.808Z,5.30
2018-08-17T14:32:45.493Z,4.65
2018-08-17T14:35:14.519Z,4.33
2018-08-17T14:37:43.026Z,5.00
2018-08-17T14:40:11.688Z,6.58
2018-08-17T14:42:40.585Z,6.28
2018-08-17T14:45:09.969Z,6.08
2018-08-17T14:47:38.769Z,7.12
2018-08-17T14:50:09.503Z,10.32
2018-08-17T14:52:38.270Z,12.75
2018-08-17T14:55:07.072Z,10.72
2018-08-17T14:57:35.570Z,8.90
2018-08-17T15:00:04.834Z,9.80
2018-08-17T15:02:33.309Z,12.68
2018-08-17T15:05:01.829Z,14.93
2018-08-17T15:07:30.374Z,17.52
2018-08-17T15:09:58.895Z,19.00
2018-08-17T15:12:27.416Z,21.10
2018-08-17T15:14:56.036Z,12.70
2018-08-17T15:17:26.195Z,4.33
2018-08-17T15:19:54.767Z,5.33
2018-08-17T15:22:23.270Z,4.20
2018-08-17T15:24:51.776Z,3.90
2018-08-17T15:27:20.337Z,3.55
2018-08-17T15:29:49.062Z,3.10
2018-08-17T15:32:17.939Z,3.02
2018-08-17T15:34:46.436Z,3.08
2018-08-17T15:37:14.982Z,2.77
2018-08-17T15:39:43.566Z,3.20
2018-08-17T15:42:12.081Z,3.42
2018-08-17T15:44:40.623Z,4.17
2018-08-17T15:47:09.777Z,4.90
2018-08-17T15:49:38.358Z,6.30
2018-08-17T15:52:07.446Z,5.30
2018-08-17T15:54:36.007Z,5.58
2018-08-17T15:57:04.493Z,6.10
2018-08-17T15:59:33.823Z,6.42
2018-08-17T16:02:02.466Z,7.17
2018-08-17T16:04:30.987Z,5.50
2018-08-17T16:06:59.474Z,4.42
2018-08-17T16:09:28.036Z,4.90
2018-08-17T16:11:56.511Z,4.45
2018-08-17T16:14:25.070Z,3.47
2018-08-17T16:16:53.576Z,3.00
2018-08-17T16:19:22.219Z,2.95
2018-08-17T16:21:50.730Z,2.42
2018-08-17T16:24:19.804Z,2.52
2018-08-17T16:26:48.369Z,2.42
2018-08-17T16:29:18.873Z,2.90
2018-08-17T16:31:47.397Z,2.27
2018-08-17T16:34:16.274Z,2.40
2018-08-17T16:36:44.810Z,2.25
2018-08-17T16:39:15.435Z,2.50
2018-08-17T16:41:44.052Z,2.33
2018-08-17T16:44:13.269Z,2.55
2018-08-17T16:46:42.752Z,2.67
2018-08-17T16:49:11.342Z,2.20
2018-08-17T16:51:40.072Z,2.10
2018-08-17T16:54:08.954Z,2.35
2018-08-17T16:56:37.649Z,2.20
2018-08-17T16:59:06.560Z,2.15
2018-08-17T17:01:34.976Z,2.12
2018-08-17T17:04:03.577Z,2.30
2018-08-17T17:06:32.187Z,2.35
2018-08-17T17:09:04.659Z,2.22
2018-08-17T17:11:33.706Z,2.02
2018-08-17T17:14:01.894Z,2.15
2018-08-17T17:16:46.485Z,2.12
2018-08-17T17:19:18.742Z,2.47
2018-08-17T17:21:47.827Z,2.17
2018-08-17T17:24:16.847Z,2.50
2018-08-17T17:26:45.354Z,2.17
2018-08-17T17:29:13.939Z,2.17
2018-08-17T17:31:42.998Z,2.60
2018-08-17T17:34:11.759Z,2.30
2018-08-17T17:36:40.237Z,2.58
2018-08-17T17:39:11.510Z,2.20
2018-08-17T17:41:39.987Z,2.10
2018-08-17T17:44:08.470Z,1.90
2018-08-17T17:46:37.411Z,2.27
2018-08-17T17:49:05.935Z,2.22
2018-08-17T17:51:34.469Z,2.58
2018-08-17T17:54:02.958Z,1.90
2018-08-17T17:56:31.512Z,2.20
2018-08-17T17:59:05.452Z,2.50
2018-08-17T18:01:34.043Z,2.45
2018-08-17T18:04:02.533Z,2.52
2018-08-17T18:06:31.024Z,2.15
2018-08-17T18:09:01.811Z,2.15
2018-08-17T18:11:30.301Z,2.20
2018-08-17T18:13:59.097Z,2.10
2018-08-17T18:16:28.542Z,2.15
2018-08-17T18:18:57.627Z,2.52
2018-08-17T18:21:32.659Z,2.10
2018-08-17T18:26:53.885Z,2.30
2018-08-17T18:29:22.511Z,2.65
2018-08-17T18:31:50.994Z,2.27
2018-08-17T18:34:19.562Z,2.83
2018-08-17T18:36:48.145Z,2.70
2018-08-17T18:39:16.758Z,2.20
2018-08-17T18:41:45.243Z,2.72
2018-08-17T18:44:13.796Z,2.50
2018-08-17T18:46:42.486Z,2.95
2018-08-17T18:49:10.928Z,2.35
2018-08-17T18:51:39.411Z,2.33
2018-08-17T18:54:07.913Z,2.87
2018-08-17T18:56:36.402Z,3.20
2018-08-17T18:59:05.009Z,3.10
2018-08-17T19:01:33.516Z,3.17
2018-08-17T19:04:02.015Z,2.72
2018-08-17T19:06:30.570Z,2.65
2018-08-17T19:08:59.049Z,2.90
2018-08-17T19:11:27.550Z,2.65
2018-08-17T19:13:56.056Z,2.75
2018-08-17T19:16:24.582Z,4.00
2018-08-17T19:18:53.323Z,3.35
2018-08-17T19:21:21.861Z,3.35
2018-08-17T19:23:50.333Z,3.90
2018-08-17T19:26:18.919Z,4.20
2018-08-17T19:28:51.696Z,4.10
2018-08-17T19:31:20.210Z,2.90
2018-08-17T19:33:48.780Z,3.40
2018-08-17T19:36:17.273Z,3.65
2018-08-17T19:38:45.759Z,4.58
2018-08-17T19:41:14.241Z,4.72
2018-08-17T19:43:42.776Z,5.30
2018-08-17T19:46:11.409Z,5.45
2018-08-17T19:48:39.782Z,5.22
2018-08-17T19:51:13.755Z,5.05
2018-08-17T19:53:42.251Z,6.50
2018-08-17T19:56:10.750Z,6.55
2018-08-17T19:58:39.244Z,6.90
2018-08-17T20:01:07.719Z,6.67
2018-08-17T20:03:36.422Z,6.87
2018-08-17T20:06:04.909Z,7.30
2018-08-17T20:08:33.412Z,7.67
2018-08-17T20:11:01.904Z,7.22
2018-08-17T20:13:31.131Z,8.18
2018-08-17T20:16:00.079Z,8.55
2018-08-17T20:18:28.895Z,13.78
2018-08-17T20:20:57.476Z,19.82
2018-08-17T20:23:25.964Z,26.10
2018-08-17T20:25:54.629Z,35.28
2018-08-17T20:28:23.026Z,31.80
2018-08-17T20:30:51.525Z,41.65
2018-08-17T20:33:25.077Z,33.48
2018-08-17T20:35:53.763Z,30.60
2018-08-17T20:38:22.359Z,28.00
2018-08-17T20:40:52.892Z,28.52
2018-08-17T20:43:21.496Z,26.50
2018-08-17T20:45:50.028Z,25.43
2018-08-17T20:48:18.513Z,22.35
2018-08-17T20:50:48.103Z,21.65
2018-08-17T20:53:19.330Z,17.35
2018-08-17T20:55:48.099Z,19.00
2018-08-17T20:58:16.956Z,15.43
2018-08-17T21:00:45.475Z,13.78
2018-08-17T21:03:13.980Z,11.88
2018-08-17T21:05:42.516Z,11.63
2018-08-17T21:08:11.057Z,11.35
2018-08-17T21:10:39.741Z,11.38
2018-08-17T21:13:08.239Z,11.00
2018-08-17T21:15:36.982Z,12.53
2018-08-17T21:18:05.657Z,12.10
2018-08-17T21:20:34.275Z,12.00
2018-08-17T21:23:02.749Z,9.38
2018-08-17T21:25:31.264Z,11.05
2018-08-17T21:27:59.766Z,9.53
2018-08-17T21:30:28.369Z,9.08
2018-08-17T21:32:56.885Z,8.88
